sensor_id;sensor_type;location;lat;lon;timestamp;temperature;humidity
54409;DHT22;40315;48.620;9.828;2022-08-23T00:02:12;15.00;99.90
54409;DHT22;40315;48.620;9.828;2022-08-23T00:04:42;15.00;99.90
54409;DHT22;40315;48.620;9.828;2022-08-23T00:07:13;15.00;99.90
54409;DHT22;40315;48.620;9.828;2022-08-23T00:09:41;14.90;99.90
54409;DHT22;40315;48.620;9.828;2022-08-23T00:12:12;14.80;99.90
54409;DHT22;40315;48.620;9.828;2022-08-23T00:14:49;14.80;99.90
54409;DHT22;40315;48.620;9.828;2022-08-23T00:17:17;14.90;99.90
54409;DHT22;40315;48.620;9.828;2022-08-23T00:19:46;14.80;99.90
54409;DHT22;40315;48.620;9.828;2022-08-23T00:24:56;14.70;99.90
54409;DHT22;40315;48.620;9.828;2022-08-23T00:27:24;14.60;99.90
54409;DHT22;40315;48.620;9.828;2022-08-23T00:29:56;14.60;99.90
54409;DHT22;40315;48.620;9.828;2022-08-23T00:32:28;14.50;99.90
54409;DHT22;40315;48.620;9.828;2022-08-23T00:34:56;14.50;99.90
54409;DHT22;40315;48.620;9.828;2022-08-23T00:37:30;14.50;99.90
54409;DHT22;40315;48.620;9.828;2022-08-23T00:40:00;14.50;99.90
54409;DHT22;40315;48.620;9.828;2022-08-23T00:42:37;14.40;99.90
54409;DHT22;40315;48.620;9.828;2022-08-23T00:45:30;14.30;99.90
54409;DHT22;40315;48.620;9.828;2022-08-23T00:48:19;14.30;99.90
54409;DHT22;40315;48.620;9.828;2022-08-23T00:50:53;14.20;99.90
54409;DHT22;40315;48.620;9.828;2022-08-23T00:53:24;14.10;99.90
54409;DHT22;40315;48.620;9.828;2022-08-23T00:55:56;14.10;99.90
54409;DHT22;40315;48.620;9.828;2022-08-23T00:58:28;13.90;99.90
54409;DHT22;40315;48.620;9.828;2022-08-23T01:03:41;13.80;99.90
54409;DHT22;40315;48.620;9.828;2022-08-23T01:06:13;13.90;99.90
54409;DHT22;40315;48.620;9.828;2022-08-23T01:08:49;14.40;99.90
54409;DHT22;40315;48.620;9.828;2022-08-23T01:11:25;13.80;99.90
54409;DHT22;40315;48.620;9.828;2022-08-23T01:13:57;13.80;99.90
54409;DHT22;40315;48.620;9.828;2022-08-23T01:16:33;13.70;99.90
54409;DHT22;40315;48.620;9.828;2022-08-23T01:19:07;13.60;99.90
54409;DHT22;40315;48.620;9.828;2022-08-23T01:21:48;13.70;99.90
54409;DHT22;40315;48.620;9.828;2022-08-23T01:24:19;13.80;99.90
54409;DHT22;40315;48.620;9.828;2022-08-23T01:26:46;13.90;99.90
54409;DHT22;40315;48.620;9.828;2022-08-23T01:29:14;13.90;99.90
54409;DHT22;40315;48.620;9.828;2022-08-23T01:31:42;14.00;99.90
54409;DHT22;40315;48.620;9.828;2022-08-23T01:34:11;13.90;99.90
54409;DHT22;40315;48.620;9.828;2022-08-23T01:36:41;13.90;99.90
54409;DHT22;40315;48.620;9.828;2022-08-23T01:39:08;13.80;99.90
54409;DHT22;40315;48.620;9.828;2022-08-23T01:44:59;13.80;99.90
54409;DHT22;40315;48.620;9.828;2022-08-23T01:47:30;13.80;99.90
54409;DHT22;40315;48.620;9.828;2022-08-23T01:49:58;13.70;99.90
54409;DHT22;40315;48.620;9.828;2022-08-23T01:52:25;13.70;99.90
54409;DHT22;40315;48.620;9.828;2022-08-23T01:54:54;13.60;99.90
54409;DHT22;40315;48.620;9.828;2022-08-23T01:57:22;13.60;99.90
54409;DHT22;40315;48.620;9.828;2022-08-23T01:59:51;13.50;99.90
54409;DHT22;40315;48.620;9.828;2022-08-23T02:02:19;13.60;99.90
54409;DHT22;40315;48.620;9.828;2022-08-23T02:04:47;13.70;99.90
54409;DHT22;40315;48.620;9.828;2022-08-23T02:07:14;13.70;99.90
54409;DHT22;40315;48.620;9.828;2022-08-23T02:09:43;13.60;99.90
54409;DHT22;40315;48.620;9.828;2022-08-23T02:12:10;13.60;99.90
54409;DHT22;40315;48.620;9.828;2022-08-23T02:14:39;13.70;99.90
54409;DHT22;40315;48.620;9.828;2022-08-23T02:17:13;13.70;99.90
54409;DHT22;40315;48.620;9.828;2022-08-23T02:19:44;13.70;99.90
54409;DHT22;40315;48.620;9.828;2022-08-23T02:22:11;13.60;99.90
54409;DHT22;40315;48.620;9.828;2022-08-23T02:24:41;13.60;99.90
54409;DHT22;40315;48.620;9.828;2022-08-23T02:27:13;13.50;99.90
54409;DHT22;40315;48.620;9.828;2022-08-23T02:29:42;13.40;99.90
54409;DHT22;40315;48.620;9.828;2022-08-23T02:32:11;13.40;99.90
54409;DHT22;40315;48.620;9.828;2022-08-23T02:34:40;13.40;99.90
54409;DHT22;40315;48.620;9.828;2022-08-23T02:37:12;13.50;99.90
54409;DHT22;40315;48.620;9.828;2022-08-23T02:39:41;13.50;99.90
54409;DHT22;40315;48.620;9.828;2022-08-23T02:42:09;13.50;99.90
54409;DHT22;40315;48.620;9.828;2022-08-23T02:44:40;13.40;99.90
54409;DHT22;40315;48.620;9.828;2022-08-23T02:47:08;13.40;99.90
54409;DHT22;40315;48.620;9.828;2022-08-23T02:49:40;13.30;99.90
54409;DHT22;40315;48.620;9.828;2022-08-23T02:52:11;13.30;99.90
54409;DHT22;40315;48.620;9.828;2022-08-23T02:54:39;13.30;99.90
54409;DHT22;40315;48.620;9.828;2022-08-23T02:57:07;13.30;99.90
54409;DHT22;40315;48.620;9.828;2022-08-23T02:59:36;13.30;99.90
54409;DHT22;40315;48.620;9.828;2022-08-23T03:02:06;13.30;99.90
54409;DHT22;40315;48.620;9.828;2022-08-23T03:04:39;13.20;99.90
54409;DHT22;40315;48.620;9.828;2022-08-23T03:07:06;13.20;99.90
54409;DHT22;40315;48.620;9.828;2022-08-23T03:09:36;13.30;99.90
54409;DHT22;40315;48.620;9.828;2022-08-23T03:12:06;13.30;99.90
54409;DHT22;40315;48.620;9.828;2022-08-23T03:14:38;13.40;99.90
54409;DHT22;40315;48.620;9.828;2022-08-23T03:17:06;13.40;99.90
54409;DHT22;40315;48.620;9.828;2022-08-23T03:19:33;13.30;99.90
54409;DHT22;40315;48.620;9.828;2022-08-23T03:22:01;13.30;99.90
54409;DHT22;40315;48.620;9.828;2022-08-23T03:24:28;13.30;99.90
54409;DHT22;40315;48.620;9.828;2022-08-23T03:26:56;13.20;99.90
54409;DHT22;40315;48.620;9.828;2022-08-23T03:29:23;13.10;99.90
54409;DHT22;40315;48.620;9.828;2022-08-23T03:31:59;13.10;99.90
54409;DHT22;40315;48.620;9.828;2022-08-23T03:34:29;13.10;99.90
54409;DHT22;40315;48.620;9.828;2022-08-23T03:36:57;13.00;99.90
54409;DHT22;40315;48.620;9.828;2022-08-23T03:39:25;13.00;99.90
54409;DHT22;40315;48.620;9.828;2022-08-23T03:41:53;12.90;99.90
54409;DHT22;40315;48.620;9.828;2022-08-23T03:44:22;12.80;99.90
54409;DHT22;40315;48.620;9.828;2022-08-23T03:46:50;12.80;99.90
54409;DHT22;40315;48.620;9.828;2022-08-23T03:49:17;12.90;99.90
54409;DHT22;40315;48.620;9.828;2022-08-23T03:51:51;12.90;99.90
54409;DHT22;40315;48.620;9.828;2022-08-23T03:54:18;12.90;99.90
54409;DHT22;40315;48.620;9.828;2022-08-23T03:56:51;12.90;99.90
54409;DHT22;40315;48.620;9.828;2022-08-23T03:59:24;12.90;99.90
54409;DHT22;40315;48.620;9.828;2022-08-23T04:01:51;12.90;99.90
54409;DHT22;40315;48.620;9.828;2022-08-23T04:04:19;12.90;99.90
54409;DHT22;40315;48.620;9.828;2022-08-23T04:07:06;12.90;99.90
54409;DHT22;40315;48.620;9.828;2022-08-23T04:09:36;12.80;99.90
54409;DHT22;40315;48.620;9.828;2022-08-23T04:12:03;12.70;99.90
54409;DHT22;40315;48.620;9.828;2022-08-23T04:14:35;12.80;99.90
54409;DHT22;40315;48.620;9.828;2022-08-23T04:17:04;12.80;99.90
54409;DHT22;40315;48.620;9.828;2022-08-23T04:19:32;12.80;99.90
54409;DHT22;40315;48.620;9.828;2022-08-23T04:22:04;12.80;99.90
54409;DHT22;40315;48.620;9.828;2022-08-23T04:24:38;12.70;99.90
54409;DHT22;40315;48.620;9.828;2022-08-23T04:27:06;12.70;99.90
54409;DHT22;40315;48.620;9.828;2022-08-23T04:29:37;12.70;99.90
54409;DHT22;40315;48.620;9.828;2022-08-23T04:32:06;12.70;99.90
54409;DHT22;40315;48.620;9.828;2022-08-23T04:34:35;12.70;99.90
54409;DHT22;40315;48.620;9.828;2022-08-23T04:37:03;12.80;99.90
54409;DHT22;40315;48.620;9.828;2022-08-23T04:39:30;12.80;99.90
54409;DHT22;40315;48.620;9.828;2022-08-23T04:42:17;12.80;99.90
54409;DHT22;40315;48.620;9.828;2022-08-23T04:44:45;12.70;99.90
54409;DHT22;40315;48.620;9.828;2022-08-23T04:47:12;12.70;99.90
54409;DHT22;40315;48.620;9.828;2022-08-23T04:49:40;12.70;99.90
54409;DHT22;40315;48.620;9.828;2022-08-23T04:52:07;12.70;99.90
54409;DHT22;40315;48.620;9.828;2022-08-23T04:54:34;12.70;99.90
54409;DHT22;40315;48.620;9.828;2022-08-23T04:57:22;12.70;99.90
54409;DHT22;40315;48.620;9.828;2022-08-23T04:59:51;12.80;99.90
54409;DHT22;40315;48.620;9.828;2022-08-23T05:02:20;12.90;99.90
54409;DHT22;40315;48.620;9.828;2022-08-23T05:04:47;12.90;99.90
54409;DHT22;40315;48.620;9.828;2022-08-23T05:07:14;13.00;99.90
54409;DHT22;40315;48.620;9.828;2022-08-23T05:09:41;12.90;99.90
54409;DHT22;40315;48.620;9.828;2022-08-23T05:12:12;13.00;99.90
54409;DHT22;40315;48.620;9.828;2022-08-23T05:14:39;12.90;99.90
54409;DHT22;40315;48.620;9.828;2022-08-23T05:17:08;12.90;99.90
54409;DHT22;40315;48.620;9.828;2022-08-23T05:19:37;12.90;99.90
54409;DHT22;40315;48.620;9.828;2022-08-23T05:22:04;13.00;99.90
54409;DHT22;40315;48.620;9.828;2022-08-23T05:24:54;13.10;99.90
54409;DHT22;40315;48.620;9.828;2022-08-23T05:27:21;13.10;99.90
54409;DHT22;40315;48.620;9.828;2022-08-23T05:29:48;13.30;99.90
54409;DHT22;40315;48.620;9.828;2022-08-23T05:32:20;13.50;99.90
54409;DHT22;40315;48.620;9.828;2022-08-23T05:34:47;13.70;99.90
54409;DHT22;40315;48.620;9.828;2022-08-23T05:37:15;14.20;99.90
54409;DHT22;40315;48.620;9.828;2022-08-23T05:39:42;15.00;99.90
54409;DHT22;40315;48.620;9.828;2022-08-23T05:42:12;15.40;99.90
54409;DHT22;40315;48.620;9.828;2022-08-23T05:44:40;15.40;99.90
54409;DHT22;40315;48.620;9.828;2022-08-23T05:47:10;15.40;99.90
54409;DHT22;40315;48.620;9.828;2022-08-23T05:49:49;15.20;99.90
54409;DHT22;40315;48.620;9.828;2022-08-23T05:52:17;15.10;99.90
54409;DHT22;40315;48.620;9.828;2022-08-23T05:54:44;15.00;99.90
54409;DHT22;40315;48.620;9.828;2022-08-23T05:57:30;14.90;99.90
54409;DHT22;40315;48.620;9.828;2022-08-23T05:59:57;14.80;99.90
54409;DHT22;40315;48.620;9.828;2022-08-23T06:02:25;14.80;99.90
54409;DHT22;40315;48.620;9.828;2022-08-23T06:04:53;14.80;99.90
54409;DHT22;40315;48.620;9.828;2022-08-23T06:07:20;14.80;99.90
54409;DHT22;40315;48.620;9.828;2022-08-23T06:09:49;15.00;99.90
54409;DHT22;40315;48.620;9.828;2022-08-23T06:12:17;15.20;99.90
54409;DHT22;40315;48.620;9.828;2022-08-23T06:14:44;15.40;99.90
54409;DHT22;40315;48.620;9.828;2022-08-23T06:17:11;15.60;99.90
54409;DHT22;40315;48.620;9.828;2022-08-23T06:19:38;16.10;99.90
54409;DHT22;40315;48.620;9.828;2022-08-23T06:22:07;16.60;99.90
54409;DHT22;40315;48.620;9.828;2022-08-23T06:24:38;16.70;99.90
54409;DHT22;40315;48.620;9.828;2022-08-23T06:27:14;16.70;99.90
54409;DHT22;40315;48.620;9.828;2022-08-23T06:29:44;16.80;99.90
54409;DHT22;40315;48.620;9.828;2022-08-23T06:32:29;17.10;99.90
54409;DHT22;40315;48.620;9.828;2022-08-23T06:35:19;17.80;99.90
54409;DHT22;40315;48.620;9.828;2022-08-23T06:37:55;18.60;99.90
54409;DHT22;40315;48.620;9.828;2022-08-23T06:40:41;19.00;99.90
54409;DHT22;40315;48.620;9.828;2022-08-23T06:43:23;19.20;99.90
54409;DHT22;40315;48.620;9.828;2022-08-23T06:46:08;20.10;99.90
54409;DHT22;40315;48.620;9.828;2022-08-23T06:48:35;20.60;99.90
54409;DHT22;40315;48.620;9.828;2022-08-23T06:51:02;21.10;99.90
54409;DHT22;40315;48.620;9.828;2022-08-23T06:53:51;21.50;99.90
54409;DHT22;40315;48.620;9.828;2022-08-23T06:56:46;22.00;99.90
54409;DHT22;40315;48.620;9.828;2022-08-23T06:59:18;22.30;99.90
54409;DHT22;40315;48.620;9.828;2022-08-23T07:02:03;22.60;99.90
54409;DHT22;40315;48.620;9.828;2022-08-23T07:04:49;22.70;99.90
54409;DHT22;40315;48.620;9.828;2022-08-23T07:07:37;22.50;99.90
54409;DHT22;40315;48.620;9.828;2022-08-23T07:10:07;22.70;99.90
54409;DHT22;40315;48.620;9.828;2022-08-23T07:12:38;22.80;99.90
54409;DHT22;40315;48.620;9.828;2022-08-23T07:15:08;23.00;99.90
54409;DHT22;40315;48.620;9.828;2022-08-23T07:17:36;23.30;99.90
54409;DHT22;40315;48.620;9.828;2022-08-23T07:20:04;23.60;99.90
54409;DHT22;40315;48.620;9.828;2022-08-23T07:22:34;23.60;99.90
54409;DHT22;40315;48.620;9.828;2022-08-23T07:25:02;24.00;99.90
54409;DHT22;40315;48.620;9.828;2022-08-23T07:27:33;24.30;99.90
54409;DHT22;40315;48.620;9.828;2022-08-23T07:30:04;24.50;99.90
54409;DHT22;40315;48.620;9.828;2022-08-23T07:32:32;24.60;99.90
54409;DHT22;40315;48.620;9.828;2022-08-23T07:35:09;24.70;99.90
54409;DHT22;40315;48.620;9.828;2022-08-23T07:37:40;25.20;99.90
54409;DHT22;40315;48.620;9.828;2022-08-23T07:40:09;25.40;99.90
54409;DHT22;40315;48.620;9.828;2022-08-23T07:42:38;25.30;99.90
54409;DHT22;40315;48.620;9.828;2022-08-23T07:45:06;25.90;99.90
54409;DHT22;40315;48.620;9.828;2022-08-23T07:47:34;25.20;99.90
54409;DHT22;40315;48.620;9.828;2022-08-23T07:50:01;25.60;99.90
54409;DHT22;40315;48.620;9.828;2022-08-23T07:52:31;26.10;99.90
54409;DHT22;40315;48.620;9.828;2022-08-23T07:54:58;25.80;99.90
54409;DHT22;40315;48.620;9.828;2022-08-23T07:57:47;25.30;99.90
54409;DHT22;40315;48.620;9.828;2022-08-23T08:00:47;24.80;99.90
54409;DHT22;40315;48.620;9.828;2022-08-23T08:03:31;25.10;99.90
54409;DHT22;40315;48.620;9.828;2022-08-23T08:06:26;26.00;99.90
54409;DHT22;40315;48.620;9.828;2022-08-23T08:08:54;26.60;99.30
54409;DHT22;40315;48.620;9.828;2022-08-23T08:11:23;27.00;98.70
54409;DHT22;40315;48.620;9.828;2022-08-23T08:13:54;27.20;96.10
54409;DHT22;40315;48.620;9.828;2022-08-23T08:16:23;27.40;96.90
54409;DHT22;40315;48.620;9.828;2022-08-23T08:18:52;27.40;94.00
54409;DHT22;40315;48.620;9.828;2022-08-23T08:21:38;27.40;95.20
54409;DHT22;40315;48.620;9.828;2022-08-23T08:24:43;27.80;95.30
54409;DHT22;40315;48.620;9.828;2022-08-23T08:27:12;27.80;92.80
54409;DHT22;40315;48.620;9.828;2022-08-23T08:29:40;27.40;90.90
54409;DHT22;40315;48.620;9.828;2022-08-23T08:32:08;27.40;90.50
54409;DHT22;40315;48.620;9.828;2022-08-23T08:34:35;26.90;93.30
54409;DHT22;40315;48.620;9.828;2022-08-23T08:37:05;27.30;92.50
54409;DHT22;40315;48.620;9.828;2022-08-23T08:39:32;27.70;94.20
54409;DHT22;40315;48.620;9.828;2022-08-23T08:42:13;27.70;90.70
54409;DHT22;40315;48.620;9.828;2022-08-23T08:44:51;27.50;88.80
54409;DHT22;40315;48.620;9.828;2022-08-23T08:47:32;27.60;94.00
54409;DHT22;40315;48.620;9.828;2022-08-23T08:50:09;28.00;90.60
54409;DHT22;40315;48.620;9.828;2022-08-23T08:52:39;27.10;86.90
54409;DHT22;40315;48.620;9.828;2022-08-23T08:55:19;26.70;90.00
54409;DHT22;40315;48.620;9.828;2022-08-23T08:57:49;26.60;88.00
54409;DHT22;40315;48.620;9.828;2022-08-23T09:00:21;26.60;90.10
54409;DHT22;40315;48.620;9.828;2022-08-23T09:02:49;26.50;87.80
54409;DHT22;40315;48.620;9.828;2022-08-23T09:05:20;26.40;89.00
54409;DHT22;40315;48.620;9.828;2022-08-23T09:07:58;26.30;87.20
54409;DHT22;40315;48.620;9.828;2022-08-23T09:10:51;26.50;90.40
54409;DHT22;40315;48.620;9.828;2022-08-23T09:13:31;27.10;91.30
54409;DHT22;40315;48.620;9.828;2022-08-23T09:16:08;27.40;85.00
54409;DHT22;40315;48.620;9.828;2022-08-23T09:18:39;25.90;86.50
54409;DHT22;40315;48.620;9.828;2022-08-23T09:21:08;25.60;87.50
54409;DHT22;40315;48.620;9.828;2022-08-23T09:23:41;26.00;90.90
54409;DHT22;40315;48.620;9.828;2022-08-23T09:26:19;25.50;87.10
54409;DHT22;40315;48.620;9.828;2022-08-23T09:28:48;25.80;88.00
54409;DHT22;40315;48.620;9.828;2022-08-23T09:31:42;26.00;90.80
54409;DHT22;40315;48.620;9.828;2022-08-23T09:34:17;27.10;90.80
54409;DHT22;40315;48.620;9.828;2022-08-23T09:37:06;27.90;86.40
54409;DHT22;40315;48.620;9.828;2022-08-23T09:39:45;28.30;83.00
54409;DHT22;40315;48.620;9.828;2022-08-23T09:42:29;27.10;81.40
54409;DHT22;40315;48.620;9.828;2022-08-23T09:45:03;26.60;84.10
54409;DHT22;40315;48.620;9.828;2022-08-23T09:47:34;26.00;84.40
54409;DHT22;40315;48.620;9.828;2022-08-23T09:50:14;26.00;85.90
54409;DHT22;40315;48.620;9.828;2022-08-23T09:52:46;26.40;87.80
54409;DHT22;40315;48.620;9.828;2022-08-23T09:55:26;27.30;87.00
54409;DHT22;40315;48.620;9.828;2022-08-23T09:57:54;27.50;82.00
54409;DHT22;40315;48.620;9.828;2022-08-23T10:00:27;26.40;83.70
54409;DHT22;40315;48.620;9.828;2022-08-23T10:03:23;26.90;86.60
54409;DHT22;40315;48.620;9.828;2022-08-23T10:05:55;27.20;85.10
54409;DHT22;40315;48.620;9.828;2022-08-23T10:08:26;27.00;86.10
54409;DHT22;40315;48.620;9.828;2022-08-23T10:11:03;27.20;83.80
54409;DHT22;40315;48.620;9.828;2022-08-23T10:13:34;26.50;82.20
54409;DHT22;40315;48.620;9.828;2022-08-23T10:16:10;26.10;83.70
54409;DHT22;40315;48.620;9.828;2022-08-23T10:18:59;26.20;84.00
54409;DHT22;40315;48.620;9.828;2022-08-23T10:21:38;26.80;85.40
54409;DHT22;40315;48.620;9.828;2022-08-23T10:24:15;26.60;81.30
54409;DHT22;40315;48.620;9.828;2022-08-23T10:26:57;26.50;83.00
54409;DHT22;40315;48.620;9.828;2022-08-23T10:29:33;26.80;84.20
54409;DHT22;40315;48.620;9.828;2022-08-23T10:32:17;26.80;82.40
54409;DHT22;40315;48.620;9.828;2022-08-23T10:35:04;27.60;84.10
54409;DHT22;40315;48.620;9.828;2022-08-23T10:37:50;27.60;81.90
54409;DHT22;40315;48.620;9.828;2022-08-23T10:40:26;27.80;83.40
54409;DHT22;40315;48.620;9.828;2022-08-23T10:43:04;27.80;79.10
54409;DHT22;40315;48.620;9.828;2022-08-23T10:45:37;27.70;80.70
54409;DHT22;40315;48.620;9.828;2022-08-23T10:48:21;27.80;80.30
54409;DHT22;40315;48.620;9.828;2022-08-23T10:50:58;27.70;81.50
54409;DHT22;40315;48.620;9.828;2022-08-23T10:53:34;27.80;79.50
54409;DHT22;40315;48.620;9.828;2022-08-23T10:56:05;28.20;80.70
54409;DHT22;40315;48.620;9.828;2022-08-23T10:58:51;28.30;81.00
54409;DHT22;40315;48.620;9.828;2022-08-23T11:01:22;28.10;77.80
54409;DHT22;40315;48.620;9.828;2022-08-23T11:04:02;28.30;79.20
54409;DHT22;40315;48.620;9.828;2022-08-23T11:06:46;28.00;78.80
54409;DHT22;40315;48.620;9.828;2022-08-23T11:09:37;27.50;79.60
54409;DHT22;40315;48.620;9.828;2022-08-23T11:12:22;27.30;82.30
54409;DHT22;40315;48.620;9.828;2022-08-23T11:15:12;28.00;82.00
54409;DHT22;40315;48.620;9.828;2022-08-23T11:18:00;27.70;77.70
54409;DHT22;40315;48.620;9.828;2022-08-23T11:23:50;27.80;78.10
54409;DHT22;40315;48.620;9.828;2022-08-23T11:26:59;28.60;79.00
54409;DHT22;40315;48.620;9.828;2022-08-23T11:29:31;29.20;74.80
54409;DHT22;40315;48.620;9.828;2022-08-23T11:32:25;30.10;74.40
54409;DHT22;40315;48.620;9.828;2022-08-23T11:35:01;30.00;75.20
54409;DHT22;40315;48.620;9.828;2022-08-23T11:37:56;30.70;72.50
54409;DHT22;40315;48.620;9.828;2022-08-23T11:40:57;30.20;69.80
54409;DHT22;40315;48.620;9.828;2022-08-23T11:43:34;30.50;72.80
54409;DHT22;40315;48.620;9.828;2022-08-23T11:46:24;30.60;70.90
54409;DHT22;40315;48.620;9.828;2022-08-23T11:49:22;30.50;70.30
54409;DHT22;40315;48.620;9.828;2022-08-23T11:52:01;31.40;70.60
54409;DHT22;40315;48.620;9.828;2022-08-23T11:54:45;31.50;65.20
54409;DHT22;40315;48.620;9.828;2022-08-23T11:57:27;29.40;70.80
54409;DHT22;40315;48.620;9.828;2022-08-23T12:00:08;29.60;70.00
54409;DHT22;40315;48.620;9.828;2022-08-23T12:02:53;29.90;68.80
54409;DHT22;40315;48.620;9.828;2022-08-23T12:06:06;30.40;71.00
54409;DHT22;40315;48.620;9.828;2022-08-23T12:08:52;31.10;64.60
54409;DHT22;40315;48.620;9.828;2022-08-23T12:11:22;31.10;67.60
54409;DHT22;40315;48.620;9.828;2022-08-23T12:14:00;31.80;65.00
54409;DHT22;40315;48.620;9.828;2022-08-23T12:16:48;32.30;61.60
54409;DHT22;40315;48.620;9.828;2022-08-23T12:19:26;31.80;58.70
54409;DHT22;40315;48.620;9.828;2022-08-23T12:21:55;31.60;61.80
54409;DHT22;40315;48.620;9.828;2022-08-23T12:24:30;32.00;58.30
54409;DHT22;40315;48.620;9.828;2022-08-23T12:27:04;32.10;58.40
54409;DHT22;40315;48.620;9.828;2022-08-23T12:29:41;32.40;58.90
54409;DHT22;40315;48.620;9.828;2022-08-23T12:32:18;32.10;58.30
54409;DHT22;40315;48.620;9.828;2022-08-23T12:34:59;31.80;57.70
54409;DHT22;40315;48.620;9.828;2022-08-23T12:37:35;31.90;58.70
54409;DHT22;40315;48.620;9.828;2022-08-23T12:40:07;31.60;59.40
54409;DHT22;40315;48.620;9.828;2022-08-23T12:42:38;31.40;57.10
54409;DHT22;40315;48.620;9.828;2022-08-23T12:45:10;31.30;56.90
54409;DHT22;40315;48.620;9.828;2022-08-23T12:47:55;31.40;57.90
54409;DHT22;40315;48.620;9.828;2022-08-23T12:50:26;31.40;58.30
54409;DHT22;40315;48.620;9.828;2022-08-23T12:52:56;31.30;58.30
54409;DHT22;40315;48.620;9.828;2022-08-23T12:55:29;31.70;57.10
54409;DHT22;40315;48.620;9.828;2022-08-23T12:57:56;31.70;56.50
54409;DHT22;40315;48.620;9.828;2022-08-23T13:00:28;31.90;56.50
54409;DHT22;40315;48.620;9.828;2022-08-23T13:02:59;31.50;58.40
54409;DHT22;40315;48.620;9.828;2022-08-23T13:05:36;31.50;57.70
54409;DHT22;40315;48.620;9.828;2022-08-23T13:08:09;31.70;56.20
54409;DHT22;40315;48.620;9.828;2022-08-23T13:10:40;31.90;55.90
54409;DHT22;40315;48.620;9.828;2022-08-23T13:13:11;31.70;55.70
54409;DHT22;40315;48.620;9.828;2022-08-23T13:15:50;31.40;55.50
54409;DHT22;40315;48.620;9.828;2022-08-23T13:18:28;30.90;55.60
54409;DHT22;40315;48.620;9.828;2022-08-23T13:21:22;30.80;57.20
54409;DHT22;40315;48.620;9.828;2022-08-23T13:23:50;30.60;57.80
54409;DHT22;40315;48.620;9.828;2022-08-23T13:26:34;30.00;58.10
54409;DHT22;40315;48.620;9.828;2022-08-23T13:29:09;30.80;60.40
54409;DHT22;40315;48.620;9.828;2022-08-23T13:31:57;30.20;59.60
54409;DHT22;40315;48.620;9.828;2022-08-23T13:34:38;30.20;60.30
54409;DHT22;40315;48.620;9.828;2022-08-23T13:37:19;30.60;59.70
54409;DHT22;40315;48.620;9.828;2022-08-23T13:39:51;30.90;57.60
54409;DHT22;40315;48.620;9.828;2022-08-23T13:42:30;30.90;58.80
54409;DHT22;40315;48.620;9.828;2022-08-23T13:45:06;30.80;56.40
54409;DHT22;40315;48.620;9.828;2022-08-23T13:47:34;31.00;57.40
54409;DHT22;40315;48.620;9.828;2022-08-23T13:50:14;30.90;56.30
54409;DHT22;40315;48.620;9.828;2022-08-23T13:52:41;31.20;56.80
54409;DHT22;40315;48.620;9.828;2022-08-23T13:55:08;31.50;55.60
54409;DHT22;40315;48.620;9.828;2022-08-23T13:57:40;31.80;56.30
54409;DHT22;40315;48.620;9.828;2022-08-23T14:00:09;32.50;55.30
54409;DHT22;40315;48.620;9.828;2022-08-23T14:02:37;32.80;55.90
54409;DHT22;40315;48.620;9.828;2022-08-23T14:05:06;32.80;53.90
54409;DHT22;40315;48.620;9.828;2022-08-23T14:07:36;33.00;53.40
54409;DHT22;40315;48.620;9.828;2022-08-23T14:10:04;33.60;55.40
54409;DHT22;40315;48.620;9.828;2022-08-23T14:12:33;34.10;53.00
54409;DHT22;40315;48.620;9.828;2022-08-23T14:15:02;33.50;54.10
54409;DHT22;40315;48.620;9.828;2022-08-23T14:17:33;33.50;55.20
54409;DHT22;40315;48.620;9.828;2022-08-23T14:20:01;32.90;54.50
54409;DHT22;40315;48.620;9.828;2022-08-23T14:22:31;32.00;55.50
54409;DHT22;40315;48.620;9.828;2022-08-23T14:24:58;31.50;57.00
54409;DHT22;40315;48.620;9.828;2022-08-23T14:27:25;31.00;57.10
54409;DHT22;40315;48.620;9.828;2022-08-23T14:29:52;30.50;57.70
54409;DHT22;40315;48.620;9.828;2022-08-23T14:32:21;29.90;57.90
54409;DHT22;40315;48.620;9.828;2022-08-23T14:34:51;29.90;59.40
54409;DHT22;40315;48.620;9.828;2022-08-23T14:37:20;29.80;59.80
54409;DHT22;40315;48.620;9.828;2022-08-23T14:39:49;29.70;59.90
54409;DHT22;40315;48.620;9.828;2022-08-23T14:42:19;29.50;61.30
54409;DHT22;40315;48.620;9.828;2022-08-23T14:44:48;29.10;60.40
54409;DHT22;40315;48.620;9.828;2022-08-23T14:47:18;29.30;60.70
54409;DHT22;40315;48.620;9.828;2022-08-23T14:49:45;29.40;59.30
54409;DHT22;40315;48.620;9.828;2022-08-23T14:52:14;29.60;58.90
54409;DHT22;40315;48.620;9.828;2022-08-23T14:54:41;29.70;59.20
54409;DHT22;40315;48.620;9.828;2022-08-23T14:57:10;30.10;56.60
54409;DHT22;40315;48.620;9.828;2022-08-23T14:59:37;30.40;57.30
54409;DHT22;40315;48.620;9.828;2022-08-23T15:02:05;30.60;56.40
54409;DHT22;40315;48.620;9.828;2022-08-23T15:04:32;30.80;57.90
54409;DHT22;40315;48.620;9.828;2022-08-23T15:06:59;30.00;56.90
54409;DHT22;40315;48.620;9.828;2022-08-23T15:09:29;29.50;58.60
54409;DHT22;40315;48.620;9.828;2022-08-23T15:11:58;29.90;58.80
54409;DHT22;40315;48.620;9.828;2022-08-23T15:14:28;29.60;59.20
54409;DHT22;40315;48.620;9.828;2022-08-23T15:16:55;30.10;59.80
54409;DHT22;40315;48.620;9.828;2022-08-23T15:19:22;30.40;57.70
54409;DHT22;40315;48.620;9.828;2022-08-23T15:21:49;30.70;57.70
54409;DHT22;40315;48.620;9.828;2022-08-23T15:24:19;30.80;58.80
54409;DHT22;40315;48.620;9.828;2022-08-23T15:26:46;31.00;57.20
54409;DHT22;40315;48.620;9.828;2022-08-23T15:29:15;31.40;56.50
54409;DHT22;40315;48.620;9.828;2022-08-23T15:31:44;31.20;56.60
54409;DHT22;40315;48.620;9.828;2022-08-23T15:34:13;30.50;57.20
54409;DHT22;40315;48.620;9.828;2022-08-23T15:36:42;30.30;58.10
54409;DHT22;40315;48.620;9.828;2022-08-23T15:39:11;30.00;57.80
54409;DHT22;40315;48.620;9.828;2022-08-23T15:41:38;29.70;59.00
54409;DHT22;40315;48.620;9.828;2022-08-23T15:44:05;29.30;58.50
54409;DHT22;40315;48.620;9.828;2022-08-23T15:46:33;29.00;60.60
54409;DHT22;40315;48.620;9.828;2022-08-23T15:49:05;29.10;61.40
54409;DHT22;40315;48.620;9.828;2022-08-23T15:51:35;29.10;61.70
54409;DHT22;40315;48.620;9.828;2022-08-23T15:54:05;29.50;61.00
54409;DHT22;40315;48.620;9.828;2022-08-23T15:56:35;29.60;59.40
54409;DHT22;40315;48.620;9.828;2022-08-23T15:59:03;29.50;59.10
54409;DHT22;40315;48.620;9.828;2022-08-23T16:01:30;29.60;59.00
54409;DHT22;40315;48.620;9.828;2022-08-23T16:04:02;29.60;59.00
54409;DHT22;40315;48.620;9.828;2022-08-23T16:06:30;29.60;59.60
54409;DHT22;40315;48.620;9.828;2022-08-23T16:08:58;29.50;59.80
54409;DHT22;40315;48.620;9.828;2022-08-23T16:11:26;29.60;60.10
54409;DHT22;40315;48.620;9.828;2022-08-23T16:13:53;29.50;59.60
54409;DHT22;40315;48.620;9.828;2022-08-23T16:16:22;29.50;59.80
54409;DHT22;40315;48.620;9.828;2022-08-23T16:18:50;29.70;59.40
54409;DHT22;40315;48.620;9.828;2022-08-23T16:21:24;29.90;59.00